createdAt,value
2024-03-24T00:00:45.855Z,94076.00
2024-03-24T00:01:45.952Z,94075.00
2024-03-24T00:02:46.009Z,94073.00
2024-03-24T00:03:46.079Z,94072.00
2024-03-24T00:04:46.156Z,94073.00
2024-03-24T00:05:46.222Z,94075.00
2024-03-24T00:06:46.301Z,94073.00
2024-03-24T00:07:46.363Z,94075.00
2024-03-24T00:08:46.427Z,94074.00
2024-03-24T00:09:46.467Z,94070.00
2024-03-24T00:10:46.557Z,94072.00
2024-03-24T00:11:46.600Z,94071.00
2024-03-24T00:12:46.627Z,94071.00
2024-03-24T00:13:46.682Z,94071.00
2024-03-24T00:14:46.750Z,94071.00
2024-03-24T00:15:46.813Z,94072.00
2024-03-24T00:16:46.851Z,94073.00
2024-03-24T00:17:46.911Z,94067.00
2024-03-24T00:18:47.020Z,94066.00
2024-03-24T00:19:47.033Z,94066.00
2024-03-24T00:20:47.093Z,94065.00
2024-03-24T00:21:47.152Z,94064.00
2024-03-24T00:22:47.191Z,94061.00
2024-03-24T00:23:47.248Z,94060.00
2024-03-24T00:24:47.304Z,94060.00
2024-03-24T00:25:47.387Z,94059.00
2024-03-24T00:26:47.436Z,94062.00
2024-03-24T00:27:47.504Z,94062.00
2024-03-24T00:28:47.540Z,94063.00
2024-03-24T00:29:47.611Z,94067.00
2024-03-24T00:30:47.681Z,94067.00
2024-03-24T00:31:47.749Z,94066.00
2024-03-24T00:32:47.797Z,94069.00
2024-03-24T00:33:47.841Z,94067.00
2024-03-24T00:34:47.909Z,94066.00
2024-03-24T00:35:47.961Z,94066.00
2024-03-24T00:36:48.011Z,94068.00
2024-03-24T00:37:48.072Z,94064.00
2024-03-24T00:38:48.139Z,94062.00
2024-03-24T00:39:48.185Z,94061.00
2024-03-24T00:40:48.282Z,94060.00
2024-03-24T00:41:48.340Z,94059.00
2024-03-24T00:42:48.394Z,94060.00
2024-03-24T00:43:48.445Z,94059.00
2024-03-24T00:44:48.531Z,94058.00
2024-03-24T00:45:48.561Z,94055.00
2024-03-24T00:46:48.609Z,94055.00
2024-03-24T00:47:48.686Z,94056.00
2024-03-24T00:48:48.722Z,94056.00
2024-03-24T00:49:48.778Z,94050.00
2024-03-24T00:50:48.853Z,94049.00
2024-03-24T00:51:48.925Z,94046.00
2024-03-24T00:52:48.954Z,94044.00
2024-03-24T00:53:49.024Z,94042.00
2024-03-24T00:54:49.100Z,94041.00
2024-03-24T00:55:49.134Z,94037.00
2024-03-24T00:56:49.185Z,94039.00
2024-03-24T00:57:49.237Z,94039.00
2024-03-24T00:58:49.307Z,94039.00
2024-03-24T00:59:49.365Z,94038.00
2024-03-24T01:00:49.412Z,94033.00
2024-03-24T01:01:49.516Z,94034.00
2024-03-24T01:02:49.542Z,94035.00
2024-03-24T01:03:49.587Z,94034.00
2024-03-24T01:04:49.646Z,94034.00
2024-03-24T01:05:49.706Z,94035.00
2024-03-24T01:06:49.772Z,94035.00
2024-03-24T01:07:49.811Z,94033.00
2024-03-24T01:08:49.873Z,94034.00
2024-03-24T01:09:49.919Z,94036.00
2024-03-24T01:10:49.957Z,94035.00
2024-03-24T01:11:50.046Z,94030.00
2024-03-24T01:12:50.048Z,94028.00
2024-03-24T01:13:50.112Z,94025.00
2024-03-24T01:14:50.132Z,94023.00
2024-03-24T01:15:50.195Z,94021.00
2024-03-24T01:16:50.287Z,94021.00
2024-03-24T01:17:50.239Z,94020.00
2024-03-24T01:18:50.327Z,94021.00
2024-03-24T01:19:50.369Z,94021.00
2024-03-24T01:20:50.416Z,94020.00
2024-03-24T01:21:50.425Z,94020.00
2024-03-24T01:22:50.473Z,94021.00
2024-03-24T01:23:50.523Z,94019.00
2024-03-24T01:24:50.576Z,94019.00
2024-03-24T01:25:50.631Z,94016.00
2024-03-24T01:26:50.687Z,94014.00
2024-03-24T01:27:50.699Z,94013.00
2024-03-24T01:28:50.754Z,94012.00
2024-03-24T01:29:50.778Z,94008.00
2024-03-24T01:30:50.822Z,94008.00
2024-03-24T01:31:50.863Z,94006.00
2024-03-24T01:32:51.012Z,94005.00
2024-03-24T01:33:51.006Z,94004.00
2024-03-24T01:34:51.037Z,94003.00
2024-03-24T01:35:51.070Z,94003.00
2024-03-24T01:36:51.094Z,93999.00
2024-03-24T01:37:51.135Z,93994.00
2024-03-24T01:38:51.195Z,93998.00
2024-03-24T01:39:51.273Z,93996.00
2024-03-24T01:40:51.303Z,93997.00
2024-03-24T01:41:51.355Z,93993.00
2024-03-24T01:42:51.409Z,93989.00
2024-03-24T01:43:51.454Z,93989.00
2024-03-24T01:44:51.513Z,93988.00
2024-03-24T01:45:51.519Z,93989.00
2024-03-24T01:46:51.547Z,93993.00
2024-03-24T01:47:51.606Z,93992.00
2024-03-24T01:48:51.655Z,93990.00
2024-03-24T01:49:51.711Z,93987.00
2024-03-24T01:50:51.765Z,93984.00
2024-03-24T01:51:51.833Z,93982.00
2024-03-24T01:52:51.846Z,93980.00
2024-03-24T01:53:51.864Z,93980.00
2024-03-24T01:54:51.914Z,93980.00
2024-03-24T01:55:51.963Z,93982.00
2024-03-24T01:56:51.971Z,93983.00
2024-03-24T01:57:52.002Z,93985.00
2024-03-24T01:58:52.044Z,93980.00
2024-03-24T01:59:52.095Z,93978.00
2024-03-24T02:00:52.112Z,93979.00
2024-03-24T02:01:52.127Z,93975.00
2024-03-24T02:02:52.152Z,93973.00
2024-03-24T02:03:52.174Z,93971.00
2024-03-24T02:04:52.183Z,93968.00
2024-03-24T02:05:52.269Z,93965.00
2024-03-24T02:06:52.320Z,93961.00
2024-03-24T02:07:52.352Z,93956.00
2024-03-24T02:08:52.424Z,93952.00
2024-03-24T02:09:52.423Z,93951.00
2024-03-24T02:10:52.461Z,93946.00
2024-03-24T02:11:52.518Z,93943.00
2024-03-24T02:12:52.543Z,93940.00
2024-03-24T02:13:52.614Z,93937.00
2024-03-24T02:14:52.585Z,93939.00
2024-03-24T02:15:52.588Z,93942.00
2024-03-24T02:16:52.623Z,93944.00
2024-03-24T02:17:57.783Z,93943.00
2024-03-24T02:18:53.722Z,93941.00
2024-03-24T02:19:52.694Z,93937.00
2024-03-24T02:20:52.919Z,93933.00
2024-03-24T02:21:52.698Z,93933.00
2024-03-24T02:22:52.700Z,93930.00
2024-03-24T02:23:52.689Z,93923.00
2024-03-24T02:24:52.702Z,93917.00
2024-03-24T02:25:52.718Z,93917.00
2024-03-24T02:26:52.715Z,93917.00
2024-03-24T02:27:52.716Z,93916.00
2024-03-24T02:28:52.734Z,93917.00
2024-03-24T02:29:52.740Z,93919.00
2024-03-24T02:30:52.771Z,93917.00
2024-03-24T02:31:52.873Z,93919.00
2024-03-24T02:32:52.887Z,93920.00
2024-03-24T02:33:52.892Z,93919.00
2024-03-24T02:34:52.958Z,93917.00
2024-03-24T02:35:52.993Z,93917.00
2024-03-24T02:36:52.994Z,93914.00
2024-03-24T02:37:53.010Z,93911.00
2024-03-24T02:38:53.080Z,93911.00
2024-03-24T02:39:53.089Z,93909.00
2024-03-24T02:40:53.096Z,93909.00
2024-03-24T02:41:53.133Z,93906.00
2024-03-24T02:42:53.154Z,93900.00
2024-03-24T02:43:53.149Z,93898.00
2024-03-24T02:44:53.193Z,93895.00
2024-03-24T02:45:53.214Z,93897.00
2024-03-24T02:46:53.243Z,93901.00
2024-03-24T02:47:53.283Z,93904.00
2024-03-24T02:48:53.291Z,93906.00
2024-03-24T02:49:53.335Z,93903.00
2024-03-24T02:50:53.344Z,93899.00
2024-03-24T02:51:53.390Z,93897.00
2024-03-24T02:52:53.408Z,93898.00
2024-03-24T02:53:53.451Z,93894.00
2024-03-24T02:54:53.498Z,93894.00
2024-03-24T02:55:53.491Z,93891.00
2024-03-24T02:56:53.568Z,93891.00
2024-03-24T02:57:53.572Z,93891.00
2024-03-24T02:58:53.645Z,93893.00
2024-03-24T02:59:53.733Z,93891.00
2024-03-24T03:00:53.737Z,93890.00
2024-03-24T03:01:53.768Z,93891.00
2024-03-24T03:02:53.773Z,93892.00
2024-03-24T03:03:53.843Z,93894.00
2024-03-24T03:04:53.882Z,93897.00
2024-03-24T03:05:53.897Z,93897.00
2024-03-24T03:06:53.958Z,93895.00
2024-03-24T03:07:53.934Z,93893.00
2024-03-24T03:08:53.989Z,93889.00
2024-03-24T03:09:53.995Z,93885.00
2024-03-24T03:10:54.072Z,93880.00
2024-03-24T03:11:54.048Z,93876.00
2024-03-24T03:12:54.114Z,93871.00
2024-03-24T03:13:54.130Z,93868.00
2024-03-24T03:14:54.155Z,93864.00
2024-03-24T03:15:54.221Z,93863.00
2024-03-24T03:16:54.249Z,93865.00
2024-03-24T03:17:54.249Z,93864.00
2024-03-24T03:18:54.260Z,93864.00
2024-03-24T03:19:54.309Z,93862.00
2024-03-24T03:20:54.384Z,93862.00
2024-03-24T03:21:54.423Z,93860.00
2024-03-24T03:22:54.427Z,93857.00
2024-03-24T03:23:54.434Z,93860.00
2024-03-24T03:24:54.460Z,93864.00
2024-03-24T03:25:54.521Z,93866.00
2024-03-24T03:26:54.591Z,93865.00
2024-03-24T03:27:54.579Z,93866.00
2024-03-24T03:28:54.615Z,93864.00
2024-03-24T03:29:54.603Z,93866.00
2024-03-24T03:30:54.653Z,93862.00
2024-03-24T03:31:54.686Z,93861.00
2024-03-24T03:32:54.739Z,93858.00
2024-03-24T03:33:54.771Z,93860.00
2024-03-24T03:34:54.829Z,93860.00
2024-03-24T03:35:54.900Z,93859.00
2024-03-24T03:36:54.913Z,93859.00
2024-03-24T03:37:54.935Z,93857.00
2024-03-24T03:38:54.956Z,93854.00
2024-03-24T03:39:54.992Z,93850.00
2024-03-24T03:40:54.999Z,93850.00
2024-03-24T03:41:55.070Z,93848.00
2024-03-24T03:42:55.086Z,93850.00
2024-03-24T03:43:55.100Z,93846.00
2024-03-24T03:44:55.120Z,93844.00
2024-03-24T03:45:55.146Z,93845.00
2024-03-24T03:46:55.208Z,93845.00
2024-03-24T03:47:55.223Z,93847.00
2024-03-24T03:48:55.274Z,93849.00
2024-03-24T03:49:55.270Z,93851.00
2024-03-24T03:50:55.328Z,93852.00
2024-03-24T03:51:55.406Z,93849.00
2024-03-24T03:52:55.445Z,93850.00
2024-03-24T03:53:55.436Z,93851.00
2024-03-24T03:54:55.481Z,93850.00
2024-03-24T03:55:55.520Z,93849.00
2024-03-24T03:56:55.557Z,93848.00
2024-03-24T03:57:55.596Z,93847.00
2024-03-24T03:58:55.590Z,93849.00
2024-03-24T03:59:55.656Z,93854.00
2024-03-24T04:00:55.666Z,93853.00
2024-03-24T04:01:55.705Z,93854.00
2024-03-24T04:02:55.714Z,93853.00
2024-03-24T04:03:55.749Z,93852.00
2024-03-24T04:04:55.844Z,93849.00
2024-03-24T04:05:55.870Z,93849.00
2024-03-24T04:06:55.892Z,93850.00
2024-03-24T04:07:55.901Z,93847.00
2024-03-24T04:08:55.975Z,93845.00
2024-03-24T04:09:56.003Z,93843.00
2024-03-24T04:10:56.060Z,93842.00
2024-03-24T04:11:56.092Z,93840.00
2024-03-24T04:12:56.126Z,93839.00
2024-03-24T04:13:56.242Z,93835.00
2024-03-24T04:14:56.292Z,93833.00
2024-03-24T04:15:56.317Z,93835.00
2024-03-24T04:16:56.328Z,93832.00
2024-03-24T04:17:56.345Z,93831.00
2024-03-24T04:18:56.412Z,93831.00
2024-03-24T04:19:56.449Z,93832.00
2024-03-24T04:20:56.490Z,93834.00
2024-03-24T04:21:56.530Z,93834.00
2024-03-24T04:22:56.547Z,93836.00
2024-03-24T04:23:56.586Z,93837.00
2024-03-24T04:24:56.637Z,93836.00
2024-03-24T04:25:56.705Z,93836.00
2024-03-24T04:26:56.736Z,93833.00
2024-03-24T04:27:56.746Z,93834.00
2024-03-24T04:28:56.793Z,93831.00
2024-03-24T04:29:56.869Z,93832.00
2024-03-24T04:30:56.943Z,93833.00
2024-03-24T04:31:56.958Z,93829.00
2024-03-24T04:32:56.982Z,93825.00
2024-03-24T04:33:57.035Z,93823.00
2024-03-24T04:35:04.847Z,93820.00
2024-03-24T04:36:04.862Z,93819.00
2024-03-24T04:37:04.853Z,93816.00
2024-03-24T04:38:04.854Z,93815.00
2024-03-24T04:39:04.839Z,93816.00
2024-03-24T04:40:04.897Z,93819.00
2024-03-24T04:41:04.854Z,93821.00
2024-03-24T04:42:04.923Z,93821.00
2024-03-24T04:43:04.835Z,93823.00
2024-03-24T04:44:04.855Z,93822.00
2024-03-24T04:45:04.843Z,93821.00
2024-03-24T04:46:04.858Z,93820.00
2024-03-24T04:47:04.959Z,93821.00
2024-03-24T04:48:04.856Z,93823.00
2024-03-24T04:49:04.869Z,93825.00
2024-03-24T04:50:04.886Z,93827.00
2024-03-24T04:51:04.864Z,93829.00
2024-03-24T04:52:04.903Z,93827.00
2024-03-24T04:53:04.855Z,93827.00
2024-03-24T04:54:04.855Z,93829.00
2024-03-24T04:55:04.857Z,93831.00
2024-03-24T04:56:04.869Z,93834.00
2024-03-24T04:57:04.866Z,93830.00
2024-03-24T04:58:04.883Z,93828.00
2024-03-24T04:59:04.867Z,93822.00
2024-03-24T05:00:04.882Z,93819.00
2024-03-24T05:01:04.869Z,93818.00
2024-03-24T05:02:04.869Z,93817.00
2024-03-24T05:03:04.904Z,93818.00
2024-03-24T05:04:04.878Z,93821.00
2024-03-24T05:05:04.886Z,93821.00
2024-03-24T05:06:04.880Z,93823.00
2024-03-24T05:07:04.928Z,93825.00
2024-03-24T05:08:04.899Z,93826.00
2024-03-24T05:09:04.897Z,93828.00
2024-03-24T05:10:04.897Z,93827.00
2024-03-24T05:11:04.899Z,93824.00
2024-03-24T05:12:04.890Z,93824.00
2024-03-24T05:13:04.892Z,93825.00
2024-03-24T05:14:04.905Z,93826.00
2024-03-24T05:15:04.890Z,93830.00
2024-03-24T05:16:04.898Z,93828.00
2024-03-24T05:17:04.908Z,93826.00
2024-03-24T05:18:04.885Z,93828.00
2024-03-24T05:19:04.902Z,93831.00
2024-03-24T05:20:04.894Z,93831.00
2024-03-24T05:21:04.895Z,93833.00
2024-03-24T05:22:04.901Z,93829.00
2024-03-24T05:23:04.919Z,93830.00
2024-03-24T05:24:04.904Z,93826.00
2024-03-24T05:25:04.902Z,93824.00
2024-03-24T05:26:04.920Z,93819.00
2024-03-24T05:27:04.900Z,93812.00
2024-03-24T05:28:04.907Z,93810.00
2024-03-24T05:29:04.934Z,93810.00
2024-03-24T05:30:04.946Z,93812.00
2024-03-24T05:31:04.943Z,93813.00
2024-03-24T05:32:04.920Z,93816.00
2024-03-24T05:33:04.923Z,93817.00
2024-03-24T05:34:04.951Z,93815.00
2024-03-24T05:35:04.931Z,93815.00
2024-03-24T05:36:04.925Z,93815.00
2024-03-24T05:37:04.933Z,93814.00
2024-03-24T05:38:04.945Z,93815.00
2024-03-24T05:39:04.947Z,93818.00
2024-03-24T05:40:04.946Z,93821.00
2024-03-24T05:41:04.953Z,93821.00
2024-03-24T05:42:04.955Z,93820.00
2024-03-24T05:43:04.961Z,93820.00
2024-03-24T05:44:04.972Z,93821.00
2024-03-24T05:45:04.943Z,93823.00
2024-03-24T05:46:04.979Z,93824.00
2024-03-24T05:47:04.975Z,93823.00
2024-03-24T05:48:04.982Z,93824.00
2024-03-24T05:49:05.000Z,93824.00
2024-03-24T05:50:05.016Z,93824.00
2024-03-24T05:51:05.059Z,93826.00
2024-03-24T05:52:05.102Z,93826.00
2024-03-24T05:53:05.122Z,93829.00
2024-03-24T05:54:05.112Z,93830.00
2024-03-24T05:55:05.113Z,93831.00
2024-03-24T05:56:05.142Z,93830.00
2024-03-24T05:57:05.170Z,93835.00
2024-03-24T05:58:05.165Z,93839.00
2024-03-24T05:59:05.188Z,93841.00
2024-03-24T06:00:05.227Z,93841.00
2024-03-24T06:01:05.268Z,93842.00
2024-03-24T06:02:05.300Z,93844.00
2024-03-24T06:03:05.326Z,93844.00
2024-03-24T06:04:05.340Z,93845.00
2024-03-24T06:05:05.362Z,93845.00
2024-03-24T06:06:05.409Z,93846.00
2024-03-24T06:07:05.472Z,93848.00
2024-03-24T06:08:05.497Z,93846.00
2024-03-24T06:09:05.486Z,93841.00
2024-03-24T06:10:05.515Z,93841.00
2024-03-24T06:11:05.553Z,93843.00
2024-03-24T06:12:05.561Z,93846.00
2024-03-24T06:13:05.604Z,93848.00
2024-03-24T06:14:05.604Z,93850.00
2024-03-24T06:15:05.631Z,93851.00
2024-03-24T06:16:05.694Z,93852.00
2024-03-24T06:17:05.695Z,93853.00
2024-03-24T06:18:05.730Z,93854.00
2024-03-24T06:19:05.768Z,93856.00
2024-03-24T06:20:05.792Z,93855.00
2024-03-24T06:21:05.852Z,93856.00
2024-03-24T06:22:05.873Z,93857.00
2024-03-24T06:23:05.933Z,93855.00
2024-03-24T06:24:05.952Z,93859.00
2024-03-24T06:25:06.006Z,93860.00
2024-03-24T06:26:06.045Z,93861.00
2024-03-24T06:27:06.062Z,93863.00
2024-03-24T06:28:06.125Z,93863.00
2024-03-24T06:29:06.143Z,93864.00
2024-03-24T06:30:06.161Z,93866.00
2024-03-24T06:31:06.205Z,93870.00
2024-03-24T06:32:06.201Z,93869.00
2024-03-24T06:33:06.264Z,93872.00
2024-03-24T06:34:06.291Z,93874.00
2024-03-24T06:35:06.306Z,93876.00
2024-03-24T06:36:06.332Z,93877.00
2024-03-24T06:37:06.347Z,93878.00
2024-03-24T06:38:06.377Z,93877.00
2024-03-24T06:39:06.383Z,93877.00
2024-03-24T06:40:06.446Z,93880.00
2024-03-24T06:41:06.435Z,93883.00
2024-03-24T06:42:06.453Z,93885.00
2024-03-24T06:43:06.459Z,93884.00
2024-03-24T06:44:06.490Z,93884.00
2024-03-24T06:45:06.545Z,93882.00
2024-03-24T06:46:06.562Z,93876.00
2024-03-24T06:47:06.580Z,93874.00
2024-03-24T06:48:06.607Z,93874.00
2024-03-24T06:49:06.679Z,93876.00
2024-03-24T06:50:06.690Z,93876.00
2024-03-24T06:51:06.704Z,93875.00
2024-03-24T06:52:06.722Z,93876.00
2024-03-24T06:53:06.767Z,93876.00
2024-03-24T06:54:06.785Z,93873.00
2024-03-24T06:55:06.804Z,93875.00
2024-03-24T06:56:06.846Z,93878.00
2024-03-24T06:57:06.875Z,93882.00
2024-03-24T06:58:06.900Z,93885.00
2024-03-24T06:59:06.897Z,93885.00
2024-03-24T07:00:06.920Z,93885.00
2024-03-24T07:01:06.989Z,93885.00
2024-03-24T07:02:06.985Z,93885.00
2024-03-24T07:03:06.977Z,93888.00
2024-03-24T07:04:07.054Z,93888.00
2024-03-24T07:05:07.031Z,93885.00
2024-03-24T07:06:07.031Z,93885.00
2024-03-24T07:07:07.066Z,93885.00
2024-03-24T07:08:07.169Z,93886.00
2024-03-24T07:09:07.177Z,93885.00
2024-03-24T07:10:07.185Z,93885.00
2024-03-24T07:11:07.190Z,93889.00
2024-03-24T07:12:07.520Z,93888.00
2024-03-24T07:13:07.291Z,93886.00
2024-03-24T07:14:07.335Z,93886.00
2024-03-24T07:15:07.361Z,93884.00
2024-03-24T07:16:07.386Z,93882.00
2024-03-24T07:17:07.400Z,93883.00
2024-03-24T07:18:07.462Z,93882.00
2024-03-24T07:19:07.468Z,93886.00
2024-03-24T07:20:07.496Z,93885.00
2024-03-24T07:21:07.584Z,93890.00
2024-03-24T07:22:07.553Z,93893.00
2024-03-24T07:23:07.575Z,93897.00
2024-03-24T07:24:07.608Z,93898.00
2024-03-24T07:25:07.711Z,93899.00
2024-03-24T07:26:07.643Z,93899.00
2024-03-24T07:27:08.060Z,93899.00
2024-03-24T07:28:07.706Z,93903.00
2024-03-24T07:29:07.720Z,93905.00
2024-03-24T07:30:07.739Z,93909.00
2024-03-24T07:31:07.753Z,93910.00
2024-03-24T07:32:07.778Z,93909.00
2024-03-24T07:33:07.820Z,93908.00
2024-03-24T07:34:07.865Z,93904.00
2024-03-24T07:35:07.950Z,93905.00
2024-03-24T07:36:07.951Z,93906.00
2024-03-24T07:37:08.019Z,93910.00
2024-03-24T07:38:08.012Z,93909.00
2024-03-24T07:39:08.012Z,93905.00
2024-03-24T07:40:08.073Z,93898.00
2024-03-24T07:41:08.170Z,93889.00
2024-03-24T07:42:08.156Z,93881.00
2024-03-24T07:43:08.249Z,93875.00
2024-03-24T07:44:08.222Z,93872.00
2024-03-24T07:45:08.258Z,93868.00
2024-03-24T07:46:08.295Z,93864.00
2024-03-24T07:47:08.367Z,93861.00
2024-03-24T07:48:08.465Z,93865.00
2024-03-24T07:49:08.403Z,93867.00
2024-03-24T07:50:08.474Z,93870.00
2024-03-24T07:51:08.503Z,93873.00
2024-03-24T07:52:08.566Z,93876.00
2024-03-24T07:53:08.582Z,93877.00
2024-03-24T07:54:08.595Z,93877.00
2024-03-24T07:55:08.621Z,93877.00
2024-03-24T07:56:08.647Z,93877.00
2024-03-24T07:57:08.651Z,93879.00
2024-03-24T07:58:08.674Z,93882.00
2024-03-24T07:59:08.744Z,93884.00
2024-03-24T08:00:08.779Z,93886.00
2024-03-24T08:01:08.823Z,93885.00
2024-03-24T08:02:08.861Z,93884.00
2024-03-24T08:03:08.921Z,93885.00
2024-03-24T08:04:08.935Z,93884.00
2024-03-24T08:05:08.960Z,93884.00
2024-03-24T08:06:08.981Z,93885.00
2024-03-24T08:07:09.030Z,93885.00
2024-03-24T08:08:09.068Z,93886.00
2024-03-24T08:09:09.076Z,93886.00
2024-03-24T08:10:09.106Z,93884.00
2024-03-24T08:11:09.154Z,93889.00
2024-03-24T08:12:09.181Z,93886.00
2024-03-24T08:13:09.186Z,93887.00
2024-03-24T08:14:09.234Z,93884.00
2024-03-24T08:15:09.306Z,93883.00
2024-03-24T08:16:09.351Z,93879.00
2024-03-24T08:17:09.391Z,93879.00
2024-03-24T08:18:09.422Z,93877.00
2024-03-24T08:19:09.424Z,93878.00
2024-03-24T08:20:09.486Z,93877.00
2024-03-24T08:21:09.657Z,93877.00
2024-03-24T08:22:09.561Z,93877.00
2024-03-24T08:23:09.662Z,93875.00
2024-03-24T08:24:09.663Z,93875.00
2024-03-24T08:25:09.682Z,93875.00
2024-03-24T08:26:09.734Z,93875.00
2024-03-24T08:27:09.780Z,93877.00
2024-03-24T08:28:09.749Z,93876.00
2024-03-24T08:29:09.812Z,93877.00
2024-03-24T08:30:09.875Z,93882.00
2024-03-24T08:31:09.895Z,93883.00
2024-03-24T08:32:09.930Z,93885.00
2024-03-24T08:33:09.898Z,93885.00
2024-03-24T08:34:09.964Z,93885.00
2024-03-24T08:35:09.981Z,93889.00
2024-03-24T08:36:09.995Z,93891.00
2024-03-24T08:37:10.026Z,93894.00
2024-03-24T08:38:10.046Z,93897.00
2024-03-24T08:39:10.058Z,93897.00
2024-03-24T08:40:10.077Z,93898.00
2024-03-24T08:41:10.111Z,93902.00
2024-03-24T08:42:10.163Z,93907.00
2024-03-24T08:43:10.181Z,93910.00
2024-03-24T08:44:10.200Z,93910.00
2024-03-24T08:45:10.268Z,93916.00
2024-03-24T08:46:10.297Z,93916.00
2024-03-24T08:47:10.318Z,93916.00
2024-03-24T08:48:10.365Z,93915.00
2024-03-24T08:49:10.401Z,93917.00
2024-03-24T08:50:10.481Z,93917.00
2024-03-24T08:51:10.470Z,93916.00
2024-03-24T08:52:10.477Z,93915.00
2024-03-24T08:53:10.519Z,93918.00
2024-03-24T08:54:10.542Z,93919.00
2024-03-24T08:55:10.576Z,93922.00
2024-03-24T08:56:10.595Z,93921.00
2024-03-24T08:57:10.644Z,93923.00
2024-03-24T08:58:10.769Z,93926.00
2024-03-24T08:59:10.735Z,93927.00
2024-03-24T09:00:10.856Z,93927.00
2024-03-24T09:01:10.893Z,93926.00
2024-03-24T09:02:10.947Z,93926.00
2024-03-24T09:03:10.921Z,93924.00
2024-03-24T09:04:10.959Z,93926.00
2024-03-24T09:05:10.979Z,93924.00
2024-03-24T09:06:11.005Z,93925.00
2024-03-24T09:07:11.045Z,93925.00
2024-03-24T09:08:11.061Z,93928.00
2024-03-24T09:09:11.099Z,93927.00
2024-03-24T09:10:11.099Z,93929.00
2024-03-24T09:11:11.116Z,93929.00
2024-03-24T09:12:11.224Z,93927.00
2024-03-24T09:13:11.204Z,93929.00
2024-03-24T09:14:11.249Z,93930.00
2024-03-24T09:15:11.297Z,93931.00
2024-03-24T09:16:11.334Z,93934.00
2024-03-24T09:17:11.384Z,93933.00
2024-03-24T09:18:11.406Z,93932.00
2024-03-24T09:19:11.438Z,93931.00
2024-03-24T09:20:11.434Z,93931.00
2024-03-24T09:21:11.446Z,93933.00
2024-03-24T09:22:11.473Z,93935.00
2024-03-24T09:23:11.595Z,93935.00
2024-03-24T09:24:11.565Z,93934.00
2024-03-24T09:25:11.604Z,93936.00
2024-03-24T09:26:11.591Z,93935.00
2024-03-24T09:27:11.631Z,93936.00
2024-03-24T09:28:11.684Z,93936.00
2024-03-24T09:29:11.712Z,93935.00
2024-03-24T09:30:11.748Z,93933.00
2024-03-24T09:31:11.783Z,93937.00
2024-03-24T09:32:11.842Z,93938.00
2024-03-24T09:33:11.847Z,93939.00
2024-03-24T09:34:11.899Z,93940.00
2024-03-24T09:35:13.587Z,93941.00
2024-03-24T09:36:11.938Z,93941.00
2024-03-24T09:37:11.958Z,93942.00
2024-03-24T09:38:11.977Z,93941.00
2024-03-24T09:39:12.038Z,93941.00
2024-03-24T09:40:12.060Z,93941.00
2024-03-24T09:41:12.059Z,93939.00
2024-03-24T09:42:12.083Z,93942.00
2024-03-24T09:43:12.085Z,93944.00
2024-03-24T09:44:12.154Z,93945.00
2024-03-24T09:45:12.159Z,93944.00
2024-03-24T09:46:12.200Z,93945.00
2024-03-24T09:47:12.267Z,93948.00
2024-03-24T09:48:12.266Z,93947.00
2024-03-24T09:49:12.264Z,93945.00
2024-03-24T09:50:12.281Z,93946.00
2024-03-24T09:51:12.279Z,93946.00
2024-03-24T09:52:12.324Z,93946.00
2024-03-24T09:53:12.312Z,93946.00
2024-03-24T09:54:12.355Z,93945.00
2024-03-24T09:55:12.396Z,93945.00
2024-03-24T09:56:12.414Z,93941.00
2024-03-24T09:57:12.469Z,93940.00
2024-03-24T09:58:13.392Z,93941.00
2024-03-24T09:59:12.562Z,93943.00
2024-03-24T10:00:12.595Z,93937.00
2024-03-24T10:01:12.626Z,93935.00
2024-03-24T10:02:12.680Z,93936.00
2024-03-24T10:03:12.688Z,93936.00
2024-03-24T10:04:12.775Z,93933.00
2024-03-24T10:05:12.795Z,93931.00
2024-03-24T10:06:12.850Z,93933.00
2024-03-24T10:07:12.882Z,93925.00
2024-03-24T10:08:12.875Z,93920.00
2024-03-24T10:09:12.910Z,93922.00
2024-03-24T10:10:12.973Z,93919.00
2024-03-24T10:11:12.992Z,93917.00
2024-03-24T10:12:13.019Z,93918.00
2024-03-24T10:13:13.092Z,93919.00
2024-03-24T10:14:13.099Z,93918.00
2024-03-24T10:15:13.170Z,93919.00
2024-03-24T10:16:13.172Z,93914.00
2024-03-24T10:17:17.227Z,93914.00
2024-03-24T10:18:14.194Z,93917.00
2024-03-24T10:19:13.208Z,93918.00
2024-03-24T10:20:13.207Z,93916.00
2024-03-24T10:21:13.184Z,93911.00
2024-03-24T10:22:13.204Z,93906.00
2024-03-24T10:23:13.214Z,93902.00
2024-03-24T10:24:13.200Z,93902.00
2024-03-24T10:25:13.197Z,93895.00
2024-03-24T10:26:13.218Z,93898.00
2024-03-24T10:27:13.233Z,93900.00
2024-03-24T10:28:13.214Z,93899.00
2024-03-24T10:29:13.205Z,93898.00
2024-03-24T10:30:13.206Z,93895.00
2024-03-24T10:31:13.224Z,93898.00
2024-03-24T10:32:20.346Z,93899.00
2024-03-24T10:33:14.224Z,93897.00
2024-03-24T10:34:13.214Z,93894.00
2024-03-24T10:35:13.213Z,93890.00
2024-03-24T10:36:13.219Z,93893.00
2024-03-24T10:37:13.253Z,93892.00
2024-03-24T10:38:13.222Z,93891.00
2024-03-24T10:39:13.225Z,93893.00
2024-03-24T10:40:13.256Z,93895.00
2024-03-24T10:41:13.227Z,93894.00
2024-03-24T10:42:13.257Z,93891.00
2024-03-24T10:43:13.276Z,93886.00
2024-03-24T10:44:13.323Z,93886.00
2024-03-24T10:45:13.387Z,93882.00
2024-03-24T10:46:13.385Z,93882.00
2024-03-24T10:47:13.454Z,93877.00
2024-03-24T10:48:13.526Z,93877.00
2024-03-24T10:49:13.559Z,93877.00
2024-03-24T10:50:13.640Z,93879.00
2024-03-24T10:51:13.630Z,93876.00
2024-03-24T10:52:13.699Z,93877.00
2024-03-24T10:53:13.754Z,93877.00
2024-03-24T10:54:13.799Z,93879.00
2024-03-24T10:55:13.864Z,93878.00
2024-03-24T10:56:13.980Z,93872.00
2024-03-24T10:57:14.031Z,93872.00
2024-03-24T10:58:14.087Z,93867.00
2024-03-24T10:59:14.154Z,93865.00
2024-03-24T11:00:14.178Z,93862.00
2024-03-24T11:01:14.275Z,93861.00
2024-03-24T11:02:14.297Z,93862.00
2024-03-24T11:03:14.381Z,93864.00
2024-03-24T11:04:14.411Z,93861.00
2024-03-24T11:05:15.187Z,93861.00
2024-03-24T11:06:15.945Z,93861.00
2024-03-24T11:07:14.603Z,93862.00
2024-03-24T11:08:14.644Z,93864.00
2024-03-24T11:09:14.702Z,93862.00
2024-03-24T11:10:14.757Z,93861.00
2024-03-24T11:11:14.805Z,93860.00
2024-03-24T11:12:17.098Z,93859.00
2024-03-24T11:13:14.867Z,93859.00
2024-03-24T11:14:14.868Z,93855.00
2024-03-24T11:15:14.855Z,93859.00
2024-03-24T11:16:14.869Z,93858.00
2024-03-24T11:17:14.890Z,93856.00
2024-03-24T11:18:14.865Z,93855.00
2024-03-24T11:19:14.889Z,93855.00
2024-03-24T11:20:14.854Z,93860.00
2024-03-24T11:21:14.893Z,93858.00
2024-03-24T11:22:14.891Z,93860.00
2024-03-24T11:23:14.852Z,93857.00
2024-03-24T11:24:14.860Z,93857.00
2024-03-24T11:25:14.896Z,93857.00
2024-03-24T11:26:14.894Z,93856.00
2024-03-24T11:27:14.896Z,93859.00
2024-03-24T11:28:14.883Z,93863.00
2024-03-24T11:29:14.869Z,93863.00
2024-03-24T11:30:14.881Z,93854.00
2024-03-24T11:31:14.882Z,93852.00
2024-03-24T11:32:14.894Z,93852.00
2024-03-24T11:33:14.875Z,93853.00
2024-03-24T11:34:14.890Z,93853.00
2024-03-24T11:35:14.905Z,93861.00
2024-03-24T11:36:14.882Z,93861.00
2024-03-24T11:37:14.903Z,93859.00
2024-03-24T11:38:14.880Z,93862.00
2024-03-24T11:39:14.887Z,93851.00
2024-03-24T11:40:14.919Z,93855.00
2024-03-24T11:41:14.937Z,93852.00
2024-03-24T11:42:14.919Z,93850.00
2024-03-24T11:43:14.907Z,93847.00
2024-03-24T11:44:14.914Z,93846.00
2024-03-24T11:45:14.895Z,93849.00